Goff, Kansas
Current Conditions -  °F | °C
As of 3:53 PM on Friday 24 Oct 2014 (Local Time) from KFNB Reporting Station
Clear Clear  
Wind Chill: 79°   Ceiling: Unl
Heat Index: 81°   Visibility: 10mi
Dew Point: 63°   Wind: 15mph
Humidity: 58%   Direction: 210°SSW
Pressure: 29.89"   Gusts: NA
Location:  39.66°N, 95.93°W
Report Text: KFNB 242053Z AUTO 21013KT 10SM CLR 26/17 A2989 RMK AO2 SLP116 T02610172 56020
Loading
Personal Weather Stations






























Interactive Weather Map
Tropical Storm Tracking
New forecast layout! Learn more

10-Day Weather Forecast

Advertisements
Track Severe Weather on mobile